sensor_id;sensor_type;location;lat;lon;timestamp;P1;durP1;ratioP1;P2;durP2;ratioP2
33246;SDS011;19606;50.108;19.804;2022-07-31T00:01:48;62.13;;;33.97;;
33246;SDS011;19606;50.108;19.804;2022-07-31T00:04:15;49.65;;;25.42;;
33246;SDS011;19606;50.108;19.804;2022-07-31T00:06:41;58.10;;;31.88;;
33246;SDS011;19606;50.108;19.804;2022-07-31T00:09:08;55.08;;;28.50;;
33246;SDS011;19606;50.108;19.804;2022-07-31T00:11:34;53.45;;;28.20;;
33246;SDS011;19606;50.108;19.804;2022-07-31T00:14:00;48.40;;;25.92;;
33246;SDS011;19606;50.108;19.804;2022-07-31T00:16:26;48.85;;;26.95;;
33246;SDS011;19606;50.108;19.804;2022-07-31T00:18:52;45.10;;;25.08;;
33246;SDS011;19606;50.108;19.804;2022-07-31T00:21:20;44.95;;;23.63;;
33246;SDS011;19606;50.108;19.804;2022-07-31T00:23:46;46.95;;;26.45;;
33246;SDS011;19606;50.108;19.804;2022-07-31T00:26:12;42.22;;;23.88;;
33246;SDS011;19606;50.108;19.804;2022-07-31T00:28:38;38.40;;;23.05;;
33246;SDS011;19606;50.108;19.804;2022-07-31T00:31:04;36.88;;;23.38;;
33246;SDS011;19606;50.108;19.804;2022-07-31T00:33:30;41.22;;;23.20;;
33246;SDS011;19606;50.108;19.804;2022-07-31T00:35:56;37.97;;;20.58;;
33246;SDS011;19606;50.108;19.804;2022-07-31T00:38:22;33.40;;;22.35;;
33246;SDS011;19606;50.108;19.804;2022-07-31T00:40:49;31.85;;;22.08;;
33246;SDS011;19606;50.108;19.804;2022-07-31T00:43:15;30.10;;;20.13;;
33246;SDS011;19606;50.108;19.804;2022-07-31T00:45:45;31.30;;;17.85;;
33246;SDS011;19606;50.108;19.804;2022-07-31T00:48:11;28.85;;;18.95;;
33246;SDS011;19606;50.108;19.804;2022-07-31T00:50:37;23.45;;;15.50;;
33246;SDS011;19606;50.108;19.804;2022-07-31T00:53:03;26.45;;;18.75;;
33246;SDS011;19606;50.108;19.804;2022-07-31T00:55:29;30.95;;;20.23;;
33246;SDS011;19606;50.108;19.804;2022-07-31T00:57:56;29.83;;;21.13;;
33246;SDS011;19606;50.108;19.804;2022-07-31T01:00:22;29.67;;;19.08;;
33246;SDS011;19606;50.108;19.804;2022-07-31T01:02:49;28.52;;;18.95;;
33246;SDS011;19606;50.108;19.804;2022-07-31T01:05:15;19.10;;;12.45;;
33246;SDS011;19606;50.108;19.804;2022-07-31T01:07:43;29.45;;;20.38;;
33246;SDS011;19606;50.108;19.804;2022-07-31T01:10:09;18.42;;;12.38;;
33246;SDS011;19606;50.108;19.804;2022-07-31T01:12:38;31.13;;;19.48;;
33246;SDS011;19606;50.108;19.804;2022-07-31T01:15:05;27.92;;;20.70;;
33246;SDS011;19606;50.108;19.804;2022-07-31T01:17:32;35.42;;;20.38;;
33246;SDS011;19606;50.108;19.804;2022-07-31T01:19:59;32.00;;;21.52;;
33246;SDS011;19606;50.108;19.804;2022-07-31T01:24:56;26.92;;;17.38;;
33246;SDS011;19606;50.108;19.804;2022-07-31T01:27:27;24.38;;;17.85;;
33246;SDS011;19606;50.108;19.804;2022-07-31T01:29:56;23.70;;;17.88;;
33246;SDS011;19606;50.108;19.804;2022-07-31T01:32:33;22.48;;;16.65;;
33246;SDS011;19606;50.108;19.804;2022-07-31T01:35:04;25.23;;;18.48;;
33246;SDS011;19606;50.108;19.804;2022-07-31T01:40:02;29.25;;;16.92;;
33246;SDS011;19606;50.108;19.804;2022-07-31T01:42:29;30.23;;;19.73;;
33246;SDS011;19606;50.108;19.804;2022-07-31T01:44:56;32.63;;;19.77;;
33246;SDS011;19606;50.108;19.804;2022-07-31T01:47:24;27.13;;;19.90;;
33246;SDS011;19606;50.108;19.804;2022-07-31T01:49:52;34.75;;;18.95;;
33246;SDS011;19606;50.108;19.804;2022-07-31T01:52:19;30.73;;;19.63;;
33246;SDS011;19606;50.108;19.804;2022-07-31T01:54:46;26.75;;;20.80;;
33246;SDS011;19606;50.108;19.804;2022-07-31T01:57:12;28.25;;;18.02;;
33246;SDS011;19606;50.108;19.804;2022-07-31T01:59:39;29.42;;;17.05;;
33246;SDS011;19606;50.108;19.804;2022-07-31T02:02:05;22.20;;;15.52;;
33246;SDS011;19606;50.108;19.804;2022-07-31T02:04:31;21.23;;;14.43;;
33246;SDS011;19606;50.108;19.804;2022-07-31T02:07:00;22.60;;;15.90;;
33246;SDS011;19606;50.108;19.804;2022-07-31T02:09:31;25.08;;;16.20;;
33246;SDS011;19606;50.108;19.804;2022-07-31T02:11:57;24.95;;;15.75;;
33246;SDS011;19606;50.108;19.804;2022-07-31T02:14:24;23.63;;;16.17;;
33246;SDS011;19606;50.108;19.804;2022-07-31T02:16:51;21.83;;;16.00;;
33246;SDS011;19606;50.108;19.804;2022-07-31T02:19:18;23.98;;;14.88;;
33246;SDS011;19606;50.108;19.804;2022-07-31T02:21:44;19.35;;;11.73;;
33246;SDS011;19606;50.108;19.804;2022-07-31T02:24:10;23.55;;;13.50;;
33246;SDS011;19606;50.108;19.804;2022-07-31T02:26:36;16.55;;;11.18;;
33246;SDS011;19606;50.108;19.804;2022-07-31T02:29:03;17.80;;;12.85;;
33246;SDS011;19606;50.108;19.804;2022-07-31T02:31:31;19.50;;;11.95;;
33246;SDS011;19606;50.108;19.804;2022-07-31T02:33:59;18.50;;;11.90;;
33246;SDS011;19606;50.108;19.804;2022-07-31T02:36:25;20.30;;;12.70;;
33246;SDS011;19606;50.108;19.804;2022-07-31T02:38:53;21.88;;;11.57;;
33246;SDS011;19606;50.108;19.804;2022-07-31T02:41:19;15.73;;;10.27;;
33246;SDS011;19606;50.108;19.804;2022-07-31T02:43:46;19.08;;;9.30;;
33246;SDS011;19606;50.108;19.804;2022-07-31T02:46:12;16.70;;;10.90;;
33246;SDS011;19606;50.108;19.804;2022-07-31T02:48:39;19.48;;;10.98;;
33246;SDS011;19606;50.108;19.804;2022-07-31T02:51:05;16.15;;;9.82;;
33246;SDS011;19606;50.108;19.804;2022-07-31T02:53:32;13.57;;;8.95;;
33246;SDS011;19606;50.108;19.804;2022-07-31T02:55:59;13.13;;;8.30;;
33246;SDS011;19606;50.108;19.804;2022-07-31T02:58:26;10.88;;;7.55;;
33246;SDS011;19606;50.108;19.804;2022-07-31T03:00:58;9.57;;;6.72;;
33246;SDS011;19606;50.108;19.804;2022-07-31T03:03:25;9.80;;;6.38;;
33246;SDS011;19606;50.108;19.804;2022-07-31T03:05:51;16.27;;;7.47;;
33246;SDS011;19606;50.108;19.804;2022-07-31T03:08:17;8.30;;;6.13;;
33246;SDS011;19606;50.108;19.804;2022-07-31T03:10:43;8.75;;;5.78;;
33246;SDS011;19606;50.108;19.804;2022-07-31T03:13:09;12.93;;;7.18;;
33246;SDS011;19606;50.108;19.804;2022-07-31T03:15:37;7.97;;;6.47;;
33246;SDS011;19606;50.108;19.804;2022-07-31T03:18:04;8.65;;;6.05;;
33246;SDS011;19606;50.108;19.804;2022-07-31T03:20:30;6.20;;;5.15;;
33246;SDS011;19606;50.108;19.804;2022-07-31T03:22:57;7.82;;;5.90;;
33246;SDS011;19606;50.108;19.804;2022-07-31T03:25:24;6.28;;;4.93;;
33246;SDS011;19606;50.108;19.804;2022-07-31T03:27:51;7.10;;;5.45;;
33246;SDS011;19606;50.108;19.804;2022-07-31T03:30:17;7.07;;;5.80;;
33246;SDS011;19606;50.108;19.804;2022-07-31T03:32:48;6.30;;;5.57;;
33246;SDS011;19606;50.108;19.804;2022-07-31T03:35:14;7.40;;;6.00;;
33246;SDS011;19606;50.108;19.804;2022-07-31T03:37:42;7.43;;;5.63;;
33246;SDS011;19606;50.108;19.804;2022-07-31T03:40:08;10.02;;;6.60;;
33246;SDS011;19606;50.108;19.804;2022-07-31T03:42:34;6.75;;;5.80;;
33246;SDS011;19606;50.108;19.804;2022-07-31T03:45:00;5.18;;;4.30;;
33246;SDS011;19606;50.108;19.804;2022-07-31T03:47:27;5.85;;;5.28;;
33246;SDS011;19606;50.108;19.804;2022-07-31T03:49:54;5.93;;;5.00;;
33246;SDS011;19606;50.108;19.804;2022-07-31T03:52:20;5.78;;;5.20;;
33246;SDS011;19606;50.108;19.804;2022-07-31T03:54:47;5.65;;;4.18;;
33246;SDS011;19606;50.108;19.804;2022-07-31T03:57:14;3.25;;;2.95;;
33246;SDS011;19606;50.108;19.804;2022-07-31T03:59:40;3.28;;;2.17;;
33246;SDS011;19606;50.108;19.804;2022-07-31T04:02:07;1.75;;;1.63;;
33246;SDS011;19606;50.108;19.804;2022-07-31T04:04:35;1.30;;;1.20;;
33246;SDS011;19606;50.108;19.804;2022-07-31T04:07:01;2.83;;;1.23;;
33246;SDS011;19606;50.108;19.804;2022-07-31T04:09:27;0.80;;;0.80;;
33246;SDS011;19606;50.108;19.804;2022-07-31T04:11:53;1.95;;;1.63;;
33246;SDS011;19606;50.108;19.804;2022-07-31T04:14:19;1.00;;;1.00;;
33246;SDS011;19606;50.108;19.804;2022-07-31T04:16:46;1.90;;;1.20;;
33246;SDS011;19606;50.108;19.804;2022-07-31T04:19:12;2.45;;;1.42;;
33246;SDS011;19606;50.108;19.804;2022-07-31T04:21:38;1.33;;;1.25;;
33246;SDS011;19606;50.108;19.804;2022-07-31T04:24:04;5.22;;;1.52;;
33246;SDS011;19606;50.108;19.804;2022-07-31T04:26:31;2.45;;;1.10;;
33246;SDS011;19606;50.108;19.804;2022-07-31T04:28:57;1.60;;;1.30;;
33246;SDS011;19606;50.108;19.804;2022-07-31T04:31:24;1.33;;;1.23;;
33246;SDS011;19606;50.108;19.804;2022-07-31T04:33:49;1.63;;;1.50;;
33246;SDS011;19606;50.108;19.804;2022-07-31T04:36:16;1.30;;;1.30;;
33246;SDS011;19606;50.108;19.804;2022-07-31T04:38:42;4.57;;;1.80;;
33246;SDS011;19606;50.108;19.804;2022-07-31T04:41:08;1.52;;;1.42;;
33246;SDS011;19606;50.108;19.804;2022-07-31T04:43:34;2.65;;;1.52;;
33246;SDS011;19606;50.108;19.804;2022-07-31T04:46:00;2.78;;;1.50;;
33246;SDS011;19606;50.108;19.804;2022-07-31T04:48:26;4.22;;;1.45;;
33246;SDS011;19606;50.108;19.804;2022-07-31T04:50:52;3.60;;;1.75;;
33246;SDS011;19606;50.108;19.804;2022-07-31T04:53:18;4.40;;;1.80;;
33246;SDS011;19606;50.108;19.804;2022-07-31T04:55:44;1.88;;;1.77;;
33246;SDS011;19606;50.108;19.804;2022-07-31T04:58:30;3.28;;;1.80;;
33246;SDS011;19606;50.108;19.804;2022-07-31T05:00:59;2.20;;;2.00;;
33246;SDS011;19606;50.108;19.804;2022-07-31T05:03:25;4.18;;;2.10;;
33246;SDS011;19606;50.108;19.804;2022-07-31T05:05:51;3.42;;;2.38;;
33246;SDS011;19606;50.108;19.804;2022-07-31T05:08:17;2.65;;;2.45;;
33246;SDS011;19606;50.108;19.804;2022-07-31T05:10:43;4.28;;;2.67;;
33246;SDS011;19606;50.108;19.804;2022-07-31T05:13:28;2.83;;;2.60;;
33246;SDS011;19606;50.108;19.804;2022-07-31T05:15:54;2.90;;;2.70;;
33246;SDS011;19606;50.108;19.804;2022-07-31T05:18:20;4.50;;;2.45;;
33246;SDS011;19606;50.108;19.804;2022-07-31T05:20:46;3.08;;;2.78;;
33246;SDS011;19606;50.108;19.804;2022-07-31T05:23:12;3.00;;;2.70;;
33246;SDS011;19606;50.108;19.804;2022-07-31T05:25:39;5.85;;;2.65;;
33246;SDS011;19606;50.108;19.804;2022-07-31T05:28:05;2.63;;;2.35;;
33246;SDS011;19606;50.108;19.804;2022-07-31T05:30:31;2.80;;;2.25;;
33246;SDS011;19606;50.108;19.804;2022-07-31T05:32:57;2.33;;;1.90;;
33246;SDS011;19606;50.108;19.804;2022-07-31T05:35:23;3.08;;;2.05;;
33246;SDS011;19606;50.108;19.804;2022-07-31T05:37:49;2.63;;;1.50;;
33246;SDS011;19606;50.108;19.804;2022-07-31T05:40:15;3.22;;;1.60;;
33246;SDS011;19606;50.108;19.804;2022-07-31T05:42:41;1.85;;;1.60;;
33246;SDS011;19606;50.108;19.804;2022-07-31T05:45:08;1.90;;;1.80;;
33246;SDS011;19606;50.108;19.804;2022-07-31T05:47:35;4.60;;;1.83;;
33246;SDS011;19606;50.108;19.804;2022-07-31T05:50:01;1.42;;;1.33;;
33246;SDS011;19606;50.108;19.804;2022-07-31T05:52:29;3.22;;;1.50;;
33246;SDS011;19606;50.108;19.804;2022-07-31T05:54:55;3.88;;;1.60;;
33246;SDS011;19606;50.108;19.804;2022-07-31T05:57:21;2.35;;;1.60;;
33246;SDS011;19606;50.108;19.804;2022-07-31T05:59:47;1.98;;;1.42;;
33246;SDS011;19606;50.108;19.804;2022-07-31T06:02:13;2.65;;;1.63;;
33246;SDS011;19606;50.108;19.804;2022-07-31T06:04:39;1.50;;;1.35;;
33246;SDS011;19606;50.108;19.804;2022-07-31T06:07:05;1.40;;;1.30;;
33246;SDS011;19606;50.108;19.804;2022-07-31T06:09:31;5.07;;;1.77;;
33246;SDS011;19606;50.108;19.804;2022-07-31T06:11:57;2.85;;;1.30;;
33246;SDS011;19606;50.108;19.804;2022-07-31T06:14:23;2.85;;;1.90;;
33246;SDS011;19606;50.108;19.804;2022-07-31T06:16:49;3.13;;;1.38;;
33246;SDS011;19606;50.108;19.804;2022-07-31T06:19:17;1.92;;;1.80;;
33246;SDS011;19606;50.108;19.804;2022-07-31T06:21:44;1.52;;;1.42;;
33246;SDS011;19606;50.108;19.804;2022-07-31T06:24:10;2.47;;;1.40;;
33246;SDS011;19606;50.108;19.804;2022-07-31T06:26:36;2.92;;;1.42;;
33246;SDS011;19606;50.108;19.804;2022-07-31T06:29:03;5.03;;;1.70;;
33246;SDS011;19606;50.108;19.804;2022-07-31T06:31:29;2.58;;;1.50;;
33246;SDS011;19606;50.108;19.804;2022-07-31T06:33:55;1.38;;;1.27;;
33246;SDS011;19606;50.108;19.804;2022-07-31T06:36:21;2.42;;;2.08;;
33246;SDS011;19606;50.108;19.804;2022-07-31T06:38:47;2.60;;;1.55;;
33246;SDS011;19606;50.108;19.804;2022-07-31T06:41:13;2.67;;;1.45;;
33246;SDS011;19606;50.108;19.804;2022-07-31T06:43:59;1.88;;;1.40;;
33246;SDS011;19606;50.108;19.804;2022-07-31T06:46:25;2.67;;;1.58;;
33246;SDS011;19606;50.108;19.804;2022-07-31T06:48:51;1.63;;;1.52;;
33246;SDS011;19606;50.108;19.804;2022-07-31T06:51:17;1.40;;;1.30;;
33246;SDS011;19606;50.108;19.804;2022-07-31T06:53:43;2.15;;;1.10;;
33246;SDS011;19606;50.108;19.804;2022-07-31T06:56:09;1.30;;;1.20;;
33246;SDS011;19606;50.108;19.804;2022-07-31T06:58:35;2.35;;;1.35;;
33246;SDS011;19606;50.108;19.804;2022-07-31T07:01:01;1.90;;;1.25;;
33246;SDS011;19606;50.108;19.804;2022-07-31T07:03:27;1.20;;;1.10;;
33246;SDS011;19606;50.108;19.804;2022-07-31T07:05:53;2.70;;;1.38;;
33246;SDS011;19606;50.108;19.804;2022-07-31T07:08:19;1.33;;;1.10;;
33246;SDS011;19606;50.108;19.804;2022-07-31T07:10:45;2.60;;;1.10;;
33246;SDS011;19606;50.108;19.804;2022-07-31T07:13:11;2.75;;;1.10;;
33246;SDS011;19606;50.108;19.804;2022-07-31T07:15:37;1.27;;;1.17;;
33246;SDS011;19606;50.108;19.804;2022-07-31T07:18:03;0.90;;;0.80;;
33246;SDS011;19606;50.108;19.804;2022-07-31T07:20:29;1.10;;;1.10;;
33246;SDS011;19606;50.108;19.804;2022-07-31T07:22:55;3.50;;;1.17;;
33246;SDS011;19606;50.108;19.804;2022-07-31T07:25:21;1.40;;;1.30;;
33246;SDS011;19606;50.108;19.804;2022-07-31T07:27:47;2.15;;;1.58;;
33246;SDS011;19606;50.108;19.804;2022-07-31T07:30:14;1.90;;;1.30;;
33246;SDS011;19606;50.108;19.804;2022-07-31T07:32:40;3.03;;;1.08;;
33246;SDS011;19606;50.108;19.804;2022-07-31T07:35:06;2.45;;;1.40;;
33246;SDS011;19606;50.108;19.804;2022-07-31T07:37:33;1.30;;;1.20;;
33246;SDS011;19606;50.108;19.804;2022-07-31T07:39:59;1.50;;;1.40;;
33246;SDS011;19606;50.108;19.804;2022-07-31T07:42:25;2.92;;;1.58;;
33246;SDS011;19606;50.108;19.804;2022-07-31T07:44:51;1.60;;;1.50;;
33246;SDS011;19606;50.108;19.804;2022-07-31T07:47:17;3.22;;;1.67;;
33246;SDS011;19606;50.108;19.804;2022-07-31T07:49:43;2.30;;;2.10;;
33246;SDS011;19606;50.108;19.804;2022-07-31T07:52:09;4.35;;;2.25;;
33246;SDS011;19606;50.108;19.804;2022-07-31T07:54:35;2.80;;;2.10;;
33246;SDS011;19606;50.108;19.804;2022-07-31T07:57:01;2.50;;;2.30;;
33246;SDS011;19606;50.108;19.804;2022-07-31T07:59:27;2.47;;;2.25;;
33246;SDS011;19606;50.108;19.804;2022-07-31T08:01:53;4.35;;;2.55;;
33246;SDS011;19606;50.108;19.804;2022-07-31T08:04:19;3.25;;;2.90;;
33246;SDS011;19606;50.108;19.804;2022-07-31T08:06:45;3.20;;;2.97;;
33246;SDS011;19606;50.108;19.804;2022-07-31T08:09:11;3.72;;;2.72;;
33246;SDS011;19606;50.108;19.804;2022-07-31T08:11:37;3.63;;;2.75;;
33246;SDS011;19606;50.108;19.804;2022-07-31T08:14:03;3.33;;;2.58;;
33246;SDS011;19606;50.108;19.804;2022-07-31T08:16:29;2.97;;;2.78;;
33246;SDS011;19606;50.108;19.804;2022-07-31T08:18:56;6.65;;;3.15;;
33246;SDS011;19606;50.108;19.804;2022-07-31T08:21:23;2.90;;;2.60;;
33246;SDS011;19606;50.108;19.804;2022-07-31T08:23:48;2.70;;;2.50;;
33246;SDS011;19606;50.108;19.804;2022-07-31T08:26:16;4.45;;;2.92;;
33246;SDS011;19606;50.108;19.804;2022-07-31T08:28:42;3.05;;;2.75;;
33246;SDS011;19606;50.108;19.804;2022-07-31T08:31:08;3.63;;;2.40;;
33246;SDS011;19606;50.108;19.804;2022-07-31T08:33:35;4.80;;;3.05;;
33246;SDS011;19606;50.108;19.804;2022-07-31T08:36:01;2.90;;;2.60;;
33246;SDS011;19606;50.108;19.804;2022-07-31T08:38:28;3.13;;;2.83;;
33246;SDS011;19606;50.108;19.804;2022-07-31T08:40:54;6.57;;;2.83;;
33246;SDS011;19606;50.108;19.804;2022-07-31T08:43:20;4.22;;;2.70;;
33246;SDS011;19606;50.108;19.804;2022-07-31T08:45:47;3.88;;;2.50;;
33246;SDS011;19606;50.108;19.804;2022-07-31T08:48:13;4.10;;;2.72;;
33246;SDS011;19606;50.108;19.804;2022-07-31T08:50:39;2.50;;;2.30;;
33246;SDS011;19606;50.108;19.804;2022-07-31T08:53:06;2.22;;;2.00;;
33246;SDS011;19606;50.108;19.804;2022-07-31T08:55:33;2.30;;;2.10;;
33246;SDS011;19606;50.108;19.804;2022-07-31T08:57:59;3.53;;;2.05;;
33246;SDS011;19606;50.108;19.804;2022-07-31T09:00:25;7.28;;;2.55;;
33246;SDS011;19606;50.108;19.804;2022-07-31T09:02:52;3.25;;;2.40;;
33246;SDS011;19606;50.108;19.804;2022-07-31T09:05:19;2.50;;;2.30;;
33246;SDS011;19606;50.108;19.804;2022-07-31T09:07:45;2.83;;;2.55;;
33246;SDS011;19606;50.108;19.804;2022-07-31T09:10:24;5.57;;;3.05;;
33246;SDS011;19606;50.108;19.804;2022-07-31T09:12:51;3.88;;;2.63;;
33246;SDS011;19606;50.108;19.804;2022-07-31T09:15:21;3.47;;;3.17;;
33246;SDS011;19606;50.108;19.804;2022-07-31T09:17:48;3.00;;;2.70;;
33246;SDS011;19606;50.108;19.804;2022-07-31T09:20:21;3.10;;;2.83;;
33246;SDS011;19606;50.108;19.804;2022-07-31T09:23:01;3.05;;;2.65;;
33246;SDS011;19606;50.108;19.804;2022-07-31T09:25:28;2.47;;;2.30;;
33246;SDS011;19606;50.108;19.804;2022-07-31T09:27:59;3.35;;;2.95;;
33246;SDS011;19606;50.108;19.804;2022-07-31T09:30:25;3.10;;;2.83;;
33246;SDS011;19606;50.108;19.804;2022-07-31T09:32:51;3.08;;;2.88;;
33246;SDS011;19606;50.108;19.804;2022-07-31T09:35:18;2.90;;;2.50;;
33246;SDS011;19606;50.108;19.804;2022-07-31T09:37:45;5.35;;;2.90;;
33246;SDS011;19606;50.108;19.804;2022-07-31T09:40:11;4.75;;;3.28;;
33246;SDS011;19606;50.108;19.804;2022-07-31T09:42:41;4.22;;;3.40;;
33246;SDS011;19606;50.108;19.804;2022-07-31T09:47:34;3.60;;;3.30;;
33246;SDS011;19606;50.108;19.804;2022-07-31T09:50:02;4.30;;;3.55;;
33246;SDS011;19606;50.108;19.804;2022-07-31T09:52:29;5.25;;;3.40;;
33246;SDS011;19606;50.108;19.804;2022-07-31T09:55:09;2.95;;;2.75;;
33246;SDS011;19606;50.108;19.804;2022-07-31T09:57:36;3.55;;;3.35;;
33246;SDS011;19606;50.108;19.804;2022-07-31T10:00:05;3.17;;;2.97;;
33246;SDS011;19606;50.108;19.804;2022-07-31T10:02:31;3.10;;;2.80;;
33246;SDS011;19606;50.108;19.804;2022-07-31T10:04:58;2.40;;;2.20;;
33246;SDS011;19606;50.108;19.804;2022-07-31T10:07:25;3.22;;;2.95;;
33246;SDS011;19606;50.108;19.804;2022-07-31T10:09:54;7.18;;;2.40;;
33246;SDS011;19606;50.108;19.804;2022-07-31T10:12:21;3.50;;;2.30;;
33246;SDS011;19606;50.108;19.804;2022-07-31T10:14:48;2.17;;;1.98;;
33246;SDS011;19606;50.108;19.804;2022-07-31T10:17:28;2.38;;;2.28;;
33246;SDS011;19606;50.108;19.804;2022-07-31T10:19:56;2.25;;;2.05;;
33246;SDS011;19606;50.108;19.804;2022-07-31T10:22:22;2.08;;;1.98;;
33246;SDS011;19606;50.108;19.804;2022-07-31T10:24:51;1.70;;;1.60;;
33246;SDS011;19606;50.108;19.804;2022-07-31T10:27:18;2.35;;;2.15;;
33246;SDS011;19606;50.108;19.804;2022-07-31T10:29:44;2.20;;;1.98;;
33246;SDS011;19606;50.108;19.804;2022-07-31T10:32:11;1.75;;;1.65;;
33246;SDS011;19606;50.108;19.804;2022-07-31T10:34:37;1.77;;;1.67;;
33246;SDS011;19606;50.108;19.804;2022-07-31T10:37:14;2.63;;;1.67;;
33246;SDS011;19606;50.108;19.804;2022-07-31T10:40:02;1.90;;;1.80;;
33246;SDS011;19606;50.108;19.804;2022-07-31T10:45:02;1.88;;;1.77;;
33246;SDS011;19606;50.108;19.804;2022-07-31T10:47:29;1.80;;;1.70;;
33246;SDS011;19606;50.108;19.804;2022-07-31T10:49:55;2.40;;;2.20;;
33246;SDS011;19606;50.108;19.804;2022-07-31T10:52:34;2.50;;;1.67;;
33246;SDS011;19606;50.108;19.804;2022-07-31T10:55:01;1.50;;;1.40;;
33246;SDS011;19606;50.108;19.804;2022-07-31T10:57:28;2.10;;;2.00;;
33246;SDS011;19606;50.108;19.804;2022-07-31T10:59:54;2.10;;;1.90;;
33246;SDS011;19606;50.108;19.804;2022-07-31T11:02:27;1.50;;;1.40;;
33246;SDS011;19606;50.108;19.804;2022-07-31T11:04:53;2.63;;;1.95;;
33246;SDS011;19606;50.108;19.804;2022-07-31T11:07:30;2.17;;;2.08;;
33246;SDS011;19606;50.108;19.804;2022-07-31T11:12:38;1.80;;;1.70;;
33246;SDS011;19606;50.108;19.804;2022-07-31T11:15:15;2.28;;;2.10;;
33246;SDS011;19606;50.108;19.804;2022-07-31T11:17:41;2.00;;;1.90;;
33246;SDS011;19606;50.108;19.804;2022-07-31T11:20:27;2.05;;;1.95;;
33246;SDS011;19606;50.108;19.804;2022-07-31T11:25:19;2.42;;;1.50;;
33246;SDS011;19606;50.108;19.804;2022-07-31T11:27:46;1.85;;;1.70;;
33246;SDS011;19606;50.108;19.804;2022-07-31T11:30:12;1.52;;;1.42;;
33246;SDS011;19606;50.108;19.804;2022-07-31T11:32:38;2.17;;;1.98;;
33246;SDS011;19606;50.108;19.804;2022-07-31T11:35:05;1.63;;;1.52;;
33246;SDS011;19606;50.108;19.804;2022-07-31T11:37:31;1.73;;;1.60;;
33246;SDS011;19606;50.108;19.804;2022-07-31T11:39:57;1.63;;;1.52;;
33246;SDS011;19606;50.108;19.804;2022-07-31T11:42:24;1.60;;;1.50;;
33246;SDS011;19606;50.108;19.804;2022-07-31T11:45:04;2.30;;;1.73;;
33246;SDS011;19606;50.108;19.804;2022-07-31T11:47:39;1.30;;;1.30;;
33246;SDS011;19606;50.108;19.804;2022-07-31T11:50:06;3.13;;;1.55;;
33246;SDS011;19606;50.108;19.804;2022-07-31T11:52:34;1.70;;;1.60;;
33246;SDS011;19606;50.108;19.804;2022-07-31T11:55:06;1.73;;;1.35;;
33246;SDS011;19606;50.108;19.804;2022-07-31T11:57:33;1.73;;;1.45;;
33246;SDS011;19606;50.108;19.804;2022-07-31T12:00:05;1.60;;;1.50;;
33246;SDS011;19606;50.108;19.804;2022-07-31T12:02:31;1.65;;;1.52;;
33246;SDS011;19606;50.108;19.804;2022-07-31T12:05:00;1.00;;;1.00;;
33246;SDS011;19606;50.108;19.804;2022-07-31T12:07:27;1.50;;;1.40;;
33246;SDS011;19606;50.108;19.804;2022-07-31T12:09:53;1.15;;;1.05;;
33246;SDS011;19606;50.108;19.804;2022-07-31T12:12:20;1.70;;;1.10;;
33246;SDS011;19606;50.108;19.804;2022-07-31T12:14:46;1.27;;;1.17;;
33246;SDS011;19606;50.108;19.804;2022-07-31T12:17:19;0.95;;;0.95;;
33246;SDS011;19606;50.108;19.804;2022-07-31T12:19:45;1.05;;;1.00;;
33246;SDS011;19606;50.108;19.804;2022-07-31T12:22:16;2.13;;;1.13;;
33246;SDS011;19606;50.108;19.804;2022-07-31T12:24:43;1.35;;;1.35;;
33246;SDS011;19606;50.108;19.804;2022-07-31T12:27:13;1.17;;;1.17;;
33246;SDS011;19606;50.108;19.804;2022-07-31T12:29:39;0.70;;;0.70;;
33246;SDS011;19606;50.108;19.804;2022-07-31T12:32:05;1.02;;;1.02;;
33246;SDS011;19606;50.108;19.804;2022-07-31T12:39:28;1.17;;;1.10;;
33246;SDS011;19606;50.108;19.804;2022-07-31T12:41:54;0.75;;;0.75;;
33246;SDS011;19606;50.108;19.804;2022-07-31T12:44:20;0.80;;;0.80;;
33246;SDS011;19606;50.108;19.804;2022-07-31T12:46:47;0.75;;;0.75;;
33246;SDS011;19606;50.108;19.804;2022-07-31T12:49:13;1.20;;;1.10;;
33246;SDS011;19606;50.108;19.804;2022-07-31T12:51:40;0.70;;;0.70;;
33246;SDS011;19606;50.108;19.804;2022-07-31T12:54:07;0.60;;;0.60;;
33246;SDS011;19606;50.108;19.804;2022-07-31T12:56:33;1.20;;;1.10;;
33246;SDS011;19606;50.108;19.804;2022-07-31T12:59:00;0.82;;;0.80;;
33246;SDS011;19606;50.108;19.804;2022-07-31T13:01:26;1.65;;;1.00;;
33246;SDS011;19606;50.108;19.804;2022-07-31T13:03:52;0.90;;;0.90;;
33246;SDS011;19606;50.108;19.804;2022-07-31T13:06:20;1.00;;;1.00;;
33246;SDS011;19606;50.108;19.804;2022-07-31T13:08:46;1.05;;;1.05;;
33246;SDS011;19606;50.108;19.804;2022-07-31T13:11:13;0.95;;;0.95;;
33246;SDS011;19606;50.108;19.804;2022-07-31T13:13:39;1.40;;;1.30;;
33246;SDS011;19606;50.108;19.804;2022-07-31T13:16:05;1.20;;;1.10;;
33246;SDS011;19606;50.108;19.804;2022-07-31T13:18:31;2.00;;;1.50;;
33246;SDS011;19606;50.108;19.804;2022-07-31T13:20:58;2.42;;;1.00;;
33246;SDS011;19606;50.108;19.804;2022-07-31T13:23:24;1.40;;;1.30;;
33246;SDS011;19606;50.108;19.804;2022-07-31T13:25:50;1.50;;;1.40;;
33246;SDS011;19606;50.108;19.804;2022-07-31T13:28:16;1.60;;;1.50;;
33246;SDS011;19606;50.108;19.804;2022-07-31T13:30:42;3.80;;;2.25;;
33246;SDS011;19606;50.108;19.804;2022-07-31T13:33:08;2.80;;;2.50;;
33246;SDS011;19606;50.108;19.804;2022-07-31T13:35:34;3.00;;;2.80;;
33246;SDS011;19606;50.108;19.804;2022-07-31T13:38:00;2.90;;;2.70;;
33246;SDS011;19606;50.108;19.804;2022-07-31T13:40:27;3.40;;;3.10;;
33246;SDS011;19606;50.108;19.804;2022-07-31T13:43:11;3.17;;;2.88;;
33246;SDS011;19606;50.108;19.804;2022-07-31T13:45:37;3.85;;;3.55;;
33246;SDS011;19606;50.108;19.804;2022-07-31T13:48:03;4.40;;;4.00;;
33246;SDS011;19606;50.108;19.804;2022-07-31T13:50:30;4.43;;;4.03;;
33246;SDS011;19606;50.108;19.804;2022-07-31T13:52:57;5.68;;;4.40;;
33246;SDS011;19606;50.108;19.804;2022-07-31T13:55:24;6.45;;;4.57;;
33246;SDS011;19606;50.108;19.804;2022-07-31T13:57:50;5.22;;;4.63;;
33246;SDS011;19606;50.108;19.804;2022-07-31T14:00:16;5.65;;;5.03;;
33246;SDS011;19606;50.108;19.804;2022-07-31T14:02:42;6.43;;;5.40;;
33246;SDS011;19606;50.108;19.804;2022-07-31T14:05:14;6.47;;;5.55;;
33246;SDS011;19606;50.108;19.804;2022-07-31T14:07:40;8.15;;;5.57;;
33246;SDS011;19606;50.108;19.804;2022-07-31T14:10:06;5.53;;;5.03;;
33246;SDS011;19606;50.108;19.804;2022-07-31T14:12:32;5.68;;;5.18;;
33246;SDS011;19606;50.108;19.804;2022-07-31T14:14:58;7.45;;;5.10;;
33246;SDS011;19606;50.108;19.804;2022-07-31T14:17:24;5.43;;;4.93;;
33246;SDS011;19606;50.108;19.804;2022-07-31T14:19:50;4.95;;;4.45;;
33246;SDS011;19606;50.108;19.804;2022-07-31T14:22:16;4.65;;;4.25;;
33246;SDS011;19606;50.108;19.804;2022-07-31T14:24:43;5.38;;;4.88;;
33246;SDS011;19606;50.108;19.804;2022-07-31T14:27:09;5.57;;;4.68;;
33246;SDS011;19606;50.108;19.804;2022-07-31T14:29:35;5.15;;;4.63;;
33246;SDS011;19606;50.108;19.804;2022-07-31T14:32:01;11.27;;;7.35;;
33246;SDS011;19606;50.108;19.804;2022-07-31T14:34:27;6.55;;;5.95;;
33246;SDS011;19606;50.108;19.804;2022-07-31T14:36:53;6.32;;;4.95;;
33246;SDS011;19606;50.108;19.804;2022-07-31T14:39:19;7.05;;;4.55;;
33246;SDS011;19606;50.108;19.804;2022-07-31T14:41:45;5.22;;;4.72;;
33246;SDS011;19606;50.108;19.804;2022-07-31T14:44:11;5.05;;;4.63;;
33246;SDS011;19606;50.108;19.804;2022-07-31T14:46:39;3.97;;;3.58;;
33246;SDS011;19606;50.108;19.804;2022-07-31T14:49:05;5.25;;;4.65;;